Terminal Aerodrome Forecast
Issued by NWS Twin Cities, MN

Home | Current Version | Previous Version | Graphics & Text | Print | Product List | Glossary On
Versions: 1 2 3 4 5 6 7 8 9 10 11 12 13 14 15 16 17 18 19 20 21
000
FTUS43 KMPX 161242 AAA
TAFSTC
TAF AMD
KSTC 161242Z 1613/1712 06005KT P6SM OVC008
     FM161600 09005KT P6SM SCT008 OVC014
     FM170500 00000KT 4SM BR OVC007=

USA.gov is the U.S. government's official web portal to all federal, state and local government web resources and services.